Time;durP1;ratioP1;P1;durP2;ratioP2;P2;SDS_P1;SDS_P2;PMS_P1;PMS_P2;Temp;Humidity;BMP_temperature;BMP_pressure;BME280_temperature;BME280_humidity;BME280_pressure;Samples;Min_cycle;Max_cycle;Signal;HPM_P1;HPM_P2
2024/01/13 00:01:43;;;;;;;16.13;5.40;;;;;;;2.32;100.00;101857.66;5064233;28;20481;-68
2024/01/13 00:04:10;;;;;;;20.87;4.93;;;;;;;2.29;100.00;101854.75;5061234;28;20048;-70
2024/01/13 00:06:35;;;;;;;18.65;5.35;;;;;;;2.33;100.00;101857.78;5064408;28;20121;-67
2024/01/13 00:09:01;;;;;;;16.57;5.87;;;;;;;2.33;100.00;101859.47;5059396;28;20080;-71
2024/01/13 00:11:26;;;;;;;16.40;5.40;;;;;;;2.35;100.00;101848.41;5061602;28;20210;-72
2024/01/13 00:13:52;;;;;;;18.63;5.80;;;;;;;2.37;100.00;101853.78;5059724;28;20294;-66
2024/01/13 00:16:17;;;;;;;14.97;4.73;;;;;;;2.38;100.00;101850.38;5060238;28;20119;-73
2024/01/13 00:18:42;;;;;;;17.07;4.90;;;;;;;2.38;100.00;101847.75;5057328;28;20048;-67
2024/01/13 00:21:08;;;;;;;21.27;5.20;;;;;;;2.34;100.00;101838.75;5060304;28;20489;-68
2024/01/13 00:23:33;;;;;;;17.00;4.95;;;;;;;2.36;100.00;101847.66;5042343;28;20044;-68
2024/01/13 00:25:59;;;;;;;14.83;3.80;;;;;;;2.38;100.00;101846.06;5042107;28;20113;-65
2024/01/13 00:28:24;;;;;;;16.05;5.03;;;;;;;2.41;100.00;101842.84;5060665;28;20041;-69
2024/01/13 00:30:50;;;;;;;22.00;5.50;;;;;;;2.38;100.00;101835.66;5059892;28;20054;-65
2024/01/13 00:33:15;;;;;;;13.47;4.30;;;;;;;2.41;100.00;101843.75;5061889;28;20388;-71
2024/01/13 00:35:40;;;;;;;11.57;4.43;;;;;;;2.43;100.00;101843.88;5060374;28;20044;-68
2024/01/13 00:38:06;;;;;;;16.67;4.17;;;;;;;2.42;100.00;101842.03;5061239;28;20047;-74
2024/01/13 00:40:31;;;;;;;17.23;4.57;;;;;;;2.44;100.00;101837.91;5061211;28;20071;-74
2024/01/13 00:42:57;;;;;;;12.97;3.80;;;;;;;2.44;100.00;101845.72;5060826;28;20347;-64
2024/01/13 00:45:22;;;;;;;21.80;4.47;;;;;;;2.44;100.00;101840.50;5059083;28;20772;-73
2024/01/13 00:47:48;;;;;;;19.00;4.27;;;;;;;2.45;100.00;101838.03;5060215;28;20556;-77
2024/01/13 00:50:13;;;;;;;14.68;3.75;;;;;;;2.48;100.00;101838.31;5060186;28;20044;-74
2024/01/13 00:52:38;;;;;;;16.00;4.60;;;;;;;2.50;100.00;101835.84;5058898;28;20583;-69
2024/01/13 00:55:04;;;;;;;19.57;4.97;;;;;;;2.53;100.00;101836.09;5060204;28;20055;-66
2024/01/13 00:57:30;;;;;;;13.55;4.20;;;;;;;2.52;100.00;101834.28;5060105;28;20853;-71
2024/01/13 00:59:55;;;;;;;9.53;2.73;;;;;;;2.54;100.00;101827.50;5058962;28;20127;-72
2024/01/13 01:02:20;;;;;;;10.47;3.07;;;;;;;2.55;100.00;101825.06;5063335;28;20488;-65
2024/01/13 01:04:46;;;;;;;14.60;3.53;;;;;;;2.53;100.00;101817.84;5059803;28;20051;-72
2024/01/13 01:07:11;;;;;;;15.67;3.50;;;;;;;2.55;100.00;101813.72;5064578;28;20449;-72
2024/01/13 01:09:36;;;;;;;11.13;3.23;;;;;;;2.55;100.00;101809.41;5051407;28;20291;-67
2024/01/13 01:12:02;;;;;;;12.83;3.13;;;;;;;2.59;100.00;101806.28;5046944;28;20506;-68
2024/01/13 01:14:27;;;;;;;9.10;2.97;;;;;;;2.58;100.00;101799.25;5046296;28;20048;-77
2024/01/13 01:16:53;;;;;;;9.17;2.90;;;;;;;2.59;100.00;101803.69;5046370;28;20036;-66
2024/01/13 01:19:18;;;;;;;14.95;2.75;;;;;;;2.57;100.00;101796.47;5046084;28;20076;-73
2024/01/13 01:21:43;;;;;;;12.17;2.93;;;;;;;2.58;100.00;101806.13;5045951;28;20101;-65
2024/01/13 01:24:09;;;;;;;10.70;3.30;;;;;;;2.59;100.00;101800.16;5045914;28;20123;-65
2024/01/13 01:26:34;;;;;;;13.23;3.20;;;;;;;2.57;100.00;101793.88;5045026;28;20466;-71
2024/01/13 01:28:59;;;;;;;14.63;3.50;;;;;;;2.60;100.00;101799.38;5045879;28;20096;-68
2024/01/13 01:31:25;;;;;;;11.63;3.23;;;;;;;2.57;100.00;101792.19;5046419;28;20361;-72
2024/01/13 01:33:50;;;;;;;10.97;3.07;;;;;;;2.60;100.00;101794.16;5045982;28;20136;-68
2024/01/13 01:36:16;;;;;;;14.13;2.87;;;;;;;2.59;100.00;101790.63;5045225;28;20128;-66
2024/01/13 01:38:41;;;;;;;9.27;2.63;;;;;;;2.59;100.00;101788.03;5045596;28;20110;-73
2024/01/13 01:41:07;;;;;;;10.30;2.80;;;;;;;2.61;100.00;101798.63;5045153;28;20276;-67
2024/01/13 01:43:32;;;;;;;13.07;3.13;;;;;;;2.61;100.00;101789.06;5043995;28;20818;-65
2024/01/13 01:45:59;;;;;;;8.57;2.83;;;;;;;2.63;100.00;101781.38;5045489;28;20111;-69
2024/01/13 01:48:33;;;;;;;10.60;2.53;;;;;;;2.65;100.00;101782.44;5044136;28;20291;-65
2024/01/13 01:50:59;;;;;;;9.48;2.95;;;;;;;2.64;100.00;101780.63;5038085;28;20033;-74
2024/01/13 01:53:25;;;;;;;8.65;2.45;;;;;;;2.63;100.00;101776.16;5045202;28;20037;-63
2024/01/13 01:55:51;;;;;;;12.48;2.97;;;;;;;2.64;100.00;101774.47;5043274;28;20090;-70
2024/01/13 01:58:18;;;;;;;13.53;2.80;;;;;;;2.66;100.00;101770.31;5044901;28;20072;-72
2024/01/13 02:00:44;;;;;;;11.75;2.75;;;;;;;2.65;100.00;101764.19;5046933;28;20037;-65
2024/01/13 02:03:10;;;;;;;8.93;2.90;;;;;;;2.66;100.00;101770.31;5044959;28;20041;-63
2024/01/13 02:05:36;;;;;;;11.93;2.90;;;;;;;2.65;100.00;101764.19;5045004;28;20405;-64
2024/01/13 02:08:01;;;;;;;10.93;2.80;;;;;;;2.69;100.00;101754.94;5049332;28;20045;-71
2024/01/13 02:10:28;;;;;;;7.27;2.53;;;;;;;2.71;100.00;101756.00;5045143;28;20831;-69
2024/01/13 02:12:53;;;;;;;11.50;2.67;;;;;;;2.68;100.00;101758.31;5044489;28;20577;-64
2024/01/13 02:15:18;;;;;;;11.60;2.83;;;;;;;2.66;100.00;101757.28;5044483;28;20052;-68
2024/01/13 02:17:44;;;;;;;12.03;2.50;;;;;;;2.68;100.00;101753.09;5045086;28;20049;-63
2024/01/13 02:20:09;;;;;;;8.83;2.63;;;;;;;2.69;100.00;101754.94;5045135;28;20111;-73
2024/01/13 02:22:35;;;;;;;8.97;2.37;;;;;;;2.66;100.00;101739.94;5044686;28;20287;-67
2024/01/13 02:25:03;;;;;;;8.93;2.67;;;;;;;2.67;100.00;101744.34;5044849;28;20127;-72
2024/01/13 02:27:29;;;;;;;13.27;2.40;;;;;;;2.67;100.00;101740.81;5045419;28;20067;-66
2024/01/13 02:29:54;;;;;;;8.80;2.17;;;;;;;2.67;100.00;101726.09;5044939;28;20064;-71
2024/01/13 02:32:20;;;;;;;10.60;3.10;;;;;;;2.68;100.00;101733.16;5043893;28;20064;-64
2024/01/13 02:34:46;;;;;;;9.03;2.70;;;;;;;2.69;100.00;101721.94;5044998;28;20083;-66
2024/01/13 02:37:11;;;;;;;13.27;2.73;;;;;;;2.71;100.00;101722.09;5044580;28;20049;-67
2024/01/13 02:39:36;;;;;;;7.47;2.20;;;;;;;2.69;100.00;101719.34;5044229;28;20094;-70
2024/01/13 02:42:02;;;;;;;7.50;2.70;;;;;;;2.66;100.00;101711.25;5044278;28;20095;-65
2024/01/13 02:44:27;;;;;;;15.30;3.07;;;;;;;2.68;100.00;101700.94;5043339;28;20037;-71
2024/01/13 02:46:53;;;;;;;13.90;3.50;;;;;;;2.66;100.00;101699.91;5044329;28;20110;-68
2024/01/13 02:49:18;;;;;;;10.30;2.77;;;;;;;2.64;100.00;101685.81;5044072;28;20305;-72
2024/01/13 02:51:44;;;;;;;8.37;2.40;;;;;;;2.64;100.00;101684.13;5044068;28;20063;-67
2024/01/13 02:54:09;;;;;;;9.83;2.90;;;;;;;2.63;100.00;101677.06;5042864;28;20045;-67
2024/01/13 02:56:34;;;;;;;9.77;2.93;;;;;;;2.63;100.00;101682.28;5043855;28;20041;-69
2024/01/13 02:59:00;;;;;;;8.20;2.65;;;;;;;2.60;100.00;101668.97;5043921;28;20041;-65
2024/01/13 03:01:25;;;;;;;10.70;2.97;;;;;;;2.59;100.00;101664.53;5047252;28;20060;-71
2024/01/13 03:03:52;;;;;;;7.63;2.33;;;;;;;2.58;100.00;101658.41;5043777;28;20041;-65
2024/01/13 03:06:17;;;;;;;9.65;3.60;;;;;;;2.58;100.00;101658.41;5043357;28;20488;-68
2024/01/13 03:08:44;;;;;;;9.00;3.07;;;;;;;2.57;100.00;101653.97;5043660;28;20096;-65
2024/01/13 03:11:12;;;;;;;8.45;3.25;;;;;;;2.56;100.00;101646.03;5044145;28;20087;-64
2024/01/13 03:13:37;;;;;;;7.28;2.45;;;;;;;2.59;100.00;101657.63;5042242;28;20099;-70
2024/01/13 03:16:03;;;;;;;8.93;3.33;;;;;;;2.60;100.00;101655.94;5034571;28;20037;-66
2024/01/13 03:18:28;;;;;;;10.60;3.17;;;;;;;2.60;100.00;101648.13;5043336;28;20114;-67
2024/01/13 03:20:54;;;;;;;12.07;3.80;;;;;;;2.58;100.00;101657.50;5042939;28;20123;-65
2024/01/13 03:23:19;;;;;;;9.23;3.70;;;;;;;2.58;100.00;101655.81;5043697;28;20284;-64
2024/01/13 03:27:57;;;;;;;13.35;4.68;;;;;;;2.58;100.00;101649.66;5059008;28;20365;-66
2024/01/13 03:32:45;;;;;;;12.35;3.33;;;;;;;2.54;100.00;101634.53;5061001;28;20369;-64
2024/01/13 03:35:10;;;;;;;10.70;3.50;;;;;;;2.54;100.00;101631.94;5049301;28;20454;-68
2024/01/13 03:37:36;;;;;;;11.20;3.58;;;;;;;2.54;100.00;101634.53;5039828;28;20112;-66
2024/01/13 03:40:02;;;;;;;9.97;3.67;;;;;;;2.56;100.00;101633.00;5047489;28;20468;-69
2024/01/13 03:42:28;;;;;;;11.35;3.50;;;;;;;2.57;100.00;101633.09;5040168;28;20045;-70
2024/01/13 03:44:54;;;;;;;10.13;3.47;;;;;;;2.56;100.00;101625.16;5056524;28;20072;-70
2024/01/13 03:49:39;;;;;;;12.80;4.43;;;;;;;2.52;100.00;101617.84;5100423;27;20395;-70
2024/01/13 03:52:04;;;;;;;10.70;3.40;;;;;;;2.50;100.00;101620.34;5083638;28;20040;-67
2024/01/13 03:54:30;;;;;;;15.63;4.27;;;;;;;2.51;100.00;101611.75;5086500;28;20055;-68
2024/01/13 03:56:55;;;;;;;9.93;3.55;;;;;;;2.51;100.00;101613.44;5097179;28;20043;-66
2024/01/13 03:59:20;;;;;;;10.50;2.97;;;;;;;2.53;100.00;101612.78;5095805;28;20407;-65
2024/01/13 04:01:46;;;;;;;12.60;3.60;;;;;;;2.52;100.00;101610.94;5086921;28;20032;-67
2024/01/13 04:04:11;;;;;;;13.00;4.13;;;;;;;2.51;100.00;101609.13;5086455;28;20166;-65
2024/01/13 04:06:40;;;;;;;10.27;3.57;;;;;;;2.51;100.00;101603.91;5095311;28;20048;-69
2024/01/13 04:09:06;;;;;;;11.75;3.30;;;;;;;2.52;100.00;101612.63;5088048;28;20048;-70
2024/01/13 04:11:31;;;;;;;13.07;3.72;;;;;;;2.50;100.00;101609.00;5098524;28;20167;-64
2024/01/13 04:13:57;;;;;;;9.23;3.60;;;;;;;2.50;100.00;101609.91;5101492;28;20131;-67
2024/01/13 04:16:22;;;;;;;12.50;3.53;;;;;;;2.50;100.00;101611.59;5100926;28;20032;-67
2024/01/13 04:18:47;;;;;;;10.83;4.10;;;;;;;2.51;100.00;101608.22;5099746;28;20506;-69
2024/01/13 04:21:13;;;;;;;8.87;3.20;;;;;;;2.51;100.00;101616.03;5102389;28;20122;-66
2024/01/13 04:23:38;;;;;;;11.63;3.97;;;;;;;2.49;100.00;101609.75;5093380;28;20452;-66
2024/01/13 04:26:05;;;;;;;9.43;3.30;;;;;;;2.49;100.00;101599.34;5101458;28;20024;-66
2024/01/13 04:28:30;;;;;;;8.82;3.10;;;;;;;2.43;100.00;101594.50;5102026;28;20036;-65
2024/01/13 04:30:56;;;;;;;9.17;3.23;;;;;;;2.44;100.00;101590.19;5076503;28;20237;-66
2024/01/13 04:33:21;;;;;;;9.03;2.87;;;;;;;2.42;100.00;101596.97;5092606;28;20064;-66
2024/01/13 04:35:46;;;;;;;9.10;2.53;;;;;;;2.43;100.00;101590.97;5101129;28;20114;-66
2024/01/13 04:38:12;;;;;;;7.87;2.47;;;;;;;2.41;100.00;101590.88;5102243;28;20032;-65
2024/01/13 04:40:37;;;;;;;8.93;2.70;;;;;;;2.41;100.00;101587.34;5102072;28;20281;-65
2024/01/13 04:43:04;;;;;;;8.90;2.93;;;;;;;2.41;100.00;101584.75;5097420;28;20551;-66
2024/01/13 04:47:46;;;;;;;8.85;3.42;;;;;;;2.42;100.00;101590.06;5103503;27;20370;-65
2024/01/13 04:50:12;;;;;;;10.00;3.90;;;;;;;2.41;100.00;101590.88;5103613;28;20024;-65
2024/01/13 04:52:37;;;;;;;11.55;3.92;;;;;;;2.39;100.00;101586.28;5103493;28;20043;-65
2024/01/13 04:55:03;;;;;;;9.63;3.60;;;;;;;2.39;100.00;101575.84;5103424;28;20032;-66
2024/01/13 04:57:28;;;;;;;10.63;4.07;;;;;;;2.41;100.00;101576.91;5102434;28;20483;-65
2024/01/13 04:59:54;;;;;;;12.37;3.73;;;;;;;2.41;100.00;101574.31;5101121;28;20044;-67
2024/01/13 05:02:19;;;;;;;11.57;4.20;;;;;;;2.38;100.00;101563.59;5103854;28;20657;-65
2024/01/13 05:04:44;;;;;;;11.67;4.10;;;;;;;2.39;100.00;101565.44;5103786;28;20035;-65
2024/01/13 05:07:10;;;;;;;11.13;4.07;;;;;;;2.38;100.00;101558.38;5108951;28;20046;-65
2024/01/13 05:09:37;;;;;;;11.27;3.87;;;;;;;2.35;100.00;101553.84;5103087;28;20448;-65
2024/01/13 05:12:02;;;;;;;9.82;3.45;;;;;;;2.35;100.00;101563.34;5103953;28;20032;-65
2024/01/13 05:14:27;;;;;;;10.80;3.83;;;;;;;2.36;100.00;101562.56;5103449;28;20054;-63
2024/01/13 05:16:53;;;;;;;11.15;4.10;;;;;;;2.35;100.00;101561.66;5102998;28;20043;-65
2024/01/13 05:19:18;;;;;;;11.83;3.77;;;;;;;2.39;100.00;101557.59;5103138;28;20127;-63
2024/01/13 05:21:44;;;;;;;12.03;4.20;;;;;;;2.38;100.00;101554.09;5103151;28;20105;-63
2024/01/13 05:24:10;;;;;;;10.17;3.63;;;;;;;2.39;100.00;101549.78;5099089;28;20119;-64
2024/01/13 05:26:37;;;;;;;11.35;4.80;;;;;;;2.38;100.00;101553.16;5099460;27;20044;-63
2024/01/13 05:29:02;;;;;;;11.73;4.25;;;;;;;2.37;100.00;101553.97;5099992;28;20032;-63
2024/01/13 05:31:27;;;;;;;15.90;5.73;;;;;;;2.40;100.00;101549.00;5100402;28;20180;-64
2024/01/13 05:33:53;;;;;;;13.87;4.47;;;;;;;2.41;100.00;101543.03;5100363;27;20297;-65
2024/01/13 05:36:18;;;;;;;11.30;3.97;;;;;;;2.43;100.00;101547.56;5099914;28;20075;-63
2024/01/13 05:38:43;;;;;;;15.63;5.15;;;;;;;2.43;100.00;101547.56;5099954;28;20385;-64
2024/01/13 05:41:10;;;;;;;10.70;3.90;;;;;;;2.44;100.00;101544.19;5100196;28;20529;-64
2024/01/13 05:43:35;;;;;;;13.85;4.35;;;;;;;2.44;100.00;101544.19;5081228;28;20652;-64
2024/01/13 05:46:01;;;;;;;12.60;4.60;;;;;;;2.43;100.00;101541.44;5099251;28;20040;-65
2024/01/13 05:48:26;;;;;;;12.73;4.80;;;;;;;2.45;100.00;101548.63;5098542;28;20039;-64
2024/01/13 05:50:51;;;;;;;11.33;3.80;;;;;;;2.45;100.00;101548.63;5099509;27;20118;-64
2024/01/13 05:53:17;;;;;;;12.23;3.93;;;;;;;2.44;100.00;101530.25;5100224;28;20127;-65
2024/01/13 05:55:43;;;;;;;10.23;4.03;;;;;;;2.43;100.00;101534.53;5099951;28;20294;-64
2024/01/13 05:58:08;;;;;;;10.33;3.90;;;;;;;2.44;100.00;101531.16;5090042;28;20040;-64
2024/01/13 06:00:33;;;;;;;12.05;4.43;;;;;;;2.45;100.00;101533.00;5085274;28;20100;-66
2024/01/13 06:02:59;;;;;;;11.57;3.93;;;;;;;2.45;100.00;101529.47;5079640;28;20047;-66
2024/01/13 06:05:24;;;;;;;9.90;4.10;;;;;;;2.45;100.00;101529.47;5093135;28;20062;-65
2024/01/13 06:07:50;;;;;;;9.63;3.53;;;;;;;2.44;100.00;101522.41;5082215;28;20040;-65
2024/01/13 06:10:17;;;;;;;10.00;3.83;;;;;;;2.44;100.00;101519.81;5085934;28;20114;-64
2024/01/13 06:12:45;;;;;;;10.45;3.85;;;;;;;2.44;100.00;101525.94;5086563;28;20043;-68
2024/01/13 06:15:10;;;;;;;9.73;3.53;;;;;;;2.43;100.00;101512.75;5088038;28;20032;-65
2024/01/13 06:17:35;;;;;;;11.50;3.95;;;;;;;2.42;100.00;101508.31;5086055;28;20046;-64
2024/01/13 06:20:01;;;;;;;9.73;3.73;;;;;;;2.43;100.00;101507.53;5086070;28;20134;-66
2024/01/13 06:22:26;;;;;;;8.27;3.50;;;;;;;2.43;100.00;101510.16;5086630;28;20082;-67
2024/01/13 06:24:53;;;;;;;9.90;3.47;;;;;;;2.42;100.00;101506.63;5088234;28;20032;-66
2024/01/13 06:29:48;;;;;;;7.90;2.72;;;;;;;2.42;100.00;101496.19;5059883;28;20366;-65
2024/01/13 06:32:13;;;;;;;10.10;3.23;;;;;;;2.42;100.00;101497.91;5047143;28;20600;-67
2024/01/13 06:34:39;;;;;;;8.63;3.05;;;;;;;2.41;100.00;101496.09;5043206;28;20084;-67
2024/01/13 06:37:05;;;;;;;9.77;3.43;;;;;;;2.41;100.00;101490.88;5007110;28;20043;-65
2024/01/13 06:39:30;;;;;;;9.18;2.97;;;;;;;2.37;100.00;101487.09;5039828;28;20049;-65
2024/01/13 06:41:56;;;;;;;7.27;2.30;;;;;;;2.35;100.00;101479.94;5039279;28;20562;-65
2024/01/13 06:44:21;;;;;;;8.13;2.70;;;;;;;2.34;100.00;101478.09;5048876;28;20033;-65
2024/01/13 06:46:47;;;;;;;7.63;2.60;;;;;;;2.33;100.00;101476.25;5048412;28;20048;-66
2024/01/13 06:49:20;;;;;;;8.45;2.63;;;;;;;2.37;100.00;101475.78;5041085;28;20030;-62
2024/01/13 06:51:45;;;;;;;9.53;3.40;;;;;;;2.36;100.00;101467.03;5041121;28;20051;-64
2024/01/13 06:54:10;;;;;;;6.43;2.30;;;;;;;2.34;100.00;101462.47;5041526;28;20417;-65
2024/01/13 06:56:37;;;;;;;7.83;2.70;;;;;;;2.32;100.00;101466.66;5040766;28;20112;-65
2024/01/13 07:01:18;;;;;;;6.85;2.50;;;;;;;2.33;100.00;101471.06;5103590;27;20391;-66
2024/01/13 07:03:47;;;;;;;8.77;2.97;;;;;;;2.32;100.00;101453.63;5080362;28;20058;-66
2024/01/13 07:06:12;;;;;;;5.97;1.90;;;;;;;2.32;100.00;101453.63;5082692;28;20064;-64
2024/01/13 07:08:38;;;;;;;8.73;2.58;;;;;;;2.30;100.00;101453.47;5084965;28;20078;-65
2024/01/13 07:13:18;;;;;;;6.82;2.50;;;;;;;2.29;100.00;101448.13;5060768;28;20369;-64
2024/01/13 07:15:44;;;;;;;7.17;2.30;;;;;;;2.30;100.00;101453.47;5052073;28;20489;-65
2024/01/13 07:18:09;;;;;;;6.22;2.28;;;;;;;2.30;100.00;101444.75;5041103;28;20033;-64
2024/01/13 07:20:34;;;;;;;7.30;2.70;;;;;;;2.31;100.00;101439.66;5026225;28;20437;-64
2024/01/13 07:23:00;;;;;;;5.83;2.13;;;;;;;2.31;100.00;101444.88;5029154;28;20065;-66
2024/01/13 07:25:25;;;;;;;7.03;2.03;;;;;;;2.32;100.00;101435.38;5026464;28;20516;-64
2024/01/13 07:27:51;;;;;;;7.03;2.50;;;;;;;2.31;100.00;101439.66;5021419;28;20033;-64
2024/01/13 07:32:42;;;;;;;7.10;2.13;;;;;;;2.30;100.00;101422.19;5062039;28;20410;-65
2024/01/13 07:35:08;;;;;;;7.70;2.67;;;;;;;2.27;100.00;101416.72;5047785;28;20033;-64
2024/01/13 07:37:33;;;;;;;5.32;1.25;;;;;;;2.26;100.00;101421.81;5047859;28;20033;-65
2024/01/13 07:39:59;;;;;;;6.43;2.03;;;;;;;2.28;100.00;101415.00;5056485;28;20146;-63
2024/01/13 07:42:25;;;;;;;6.83;1.97;;;;;;;2.31;100.00;101420.50;5011206;28;20296;-64
2024/01/13 07:44:50;;;;;;;6.20;1.83;;;;;;;2.33;100.00;101418.91;5033681;28;20423;-66
2024/01/13 07:47:15;;;;;;;7.70;2.27;;;;;;;2.33;100.00;101409.41;5045423;28;20107;-65
2024/01/13 07:49:41;;;;;;;7.70;1.97;;;;;;;2.36;100.00;101400.94;5041994;28;20445;-65
2024/01/13 07:52:06;;;;;;;6.17;1.83;;;;;;;2.38;100.00;101404.56;5040251;28;20349;-65
2024/01/13 07:56:53;;;;;;;5.87;1.83;;;;;;;2.41;100.00;101402.25;5051285;28;20401;-64
2024/01/13 07:59:18;;;;;;;5.85;2.20;;;;;;;2.43;100.00;101400.66;5042064;28;20037;-65
2024/01/13 08:01:45;;;;;;;5.93;1.90;;;;;;;2.42;100.00;101393.63;5024103;28;20064;-64
2024/01/13 08:06:32;;;;;;;6.45;2.38;;;;;;;2.45;100.00;101384.38;5066729;28;20375;-64
2024/01/13 08:08:58;;;;;;;4.57;1.50;;;;;;;2.48;100.00;101384.63;5059916;28;20427;-65
2024/01/13 08:11:23;;;;;;;5.38;1.73;;;;;;;2.46;100.00;101381.00;5040248;28;20140;-65
2024/01/13 08:13:48;;;;;;;7.20;2.10;;;;;;;2.51;100.00;101383.97;5039883;28;20045;-63
2024/01/13 08:16:14;;;;;;;5.90;2.10;;;;;;;2.54;100.00;101381.63;5038306;28;20052;-66
2024/01/13 08:20:59;;;;;;;4.60;1.33;;;;;;;2.55;100.00;101373.00;5053231;28;20373;-66
2024/01/13 08:23:25;;;;;;;5.63;2.05;;;;;;;2.57;100.00;101384.47;5046117;28;20033;-64
2024/01/13 08:25:50;;;;;;;8.00;1.93;;;;;;;2.56;100.00;101372.22;5046865;28;20036;-65
2024/01/13 08:28:15;;;;;;;5.87;1.70;;;;;;;2.60;100.00;101379.50;5044736;28;20108;-65
2024/01/13 08:30:41;;;;;;;5.87;1.90;;;;;;;2.60;100.00;101374.31;5039965;28;20106;-65
2024/01/13 08:33:06;;;;;;;5.87;1.80;;;;;;;2.65;100.00;101377.28;5022245;28;20053;-66
2024/01/13 08:35:31;;;;;;;6.57;2.27;;;;;;;2.69;100.00;101376.75;5028130;28;20047;-66
2024/01/13 08:37:57;;;;;;;5.57;1.63;;;;;;;2.71;100.00;101378.72;5028907;28;20354;-66
2024/01/13 08:40:22;;;;;;;5.97;1.53;;;;;;;2.72;100.00;101367.47;5041477;28;20112;-64
2024/01/13 08:42:49;;;;;;;8.00;2.87;;;;;;;2.77;100.00;101362.63;5047814;28;20036;-68
2024/01/13 08:45:15;;;;;;;6.32;2.15;;;;;;;2.83;100.00;101368.34;5046739;28;20048;-66
2024/01/13 08:47:40;;;;;;;6.03;1.90;;;;;;;2.87;100.00;101352.13;5023675;28;20069;-66
2024/01/13 08:50:06;;;;;;;6.00;1.93;;;;;;;2.89;100.00;101351.50;5034172;28;20033;-65
2024/01/13 08:52:31;;;;;;;6.75;1.95;;;;;;;2.90;100.00;101361.16;5023425;28;20061;-65
2024/01/13 08:54:57;;;;;;;6.03;1.63;;;;;;;2.96;100.00;101360.75;5027868;28;20037;-64
2024/01/13 08:57:22;;;;;;;6.23;2.07;;;;;;;2.99;100.00;101359.28;5019575;28;20037;-67
2024/01/13 08:59:47;;;;;;;8.13;2.53;;;;;;;3.00;100.00;101353.28;5027964;28;20395;-66
2024/01/13 09:02:13;;;;;;;7.23;1.77;;;;;;;3.02;100.00;101358.59;5030914;28;20140;-66
2024/01/13 09:04:38;;;;;;;4.90;1.47;;;;;;;3.03;100.00;101345.69;5039841;28;20288;-66
2024/01/13 09:07:04;;;;;;;5.47;1.70;;;;;;;3.09;100.00;101341.75;5031769;28;20047;-65
2024/01/13 09:09:29;;;;;;;5.27;1.60;;;;;;;3.05;100.00;101335.38;5019870;28;20061;-67
2024/01/13 09:11:55;;;;;;;5.37;1.70;;;;;;;3.10;100.00;101338.34;5018246;28;20164;-66
2024/01/13 09:14:20;;;;;;;6.13;1.58;;;;;;;3.10;100.00;101314.84;5025786;28;20052;-66
2024/01/13 09:16:46;;;;;;;5.20;1.43;;;;;;;3.11;100.00;101309.72;5020214;28;20121;-64
2024/01/13 09:19:11;;;;;;;5.17;1.37;;;;;;;3.17;100.00;101302.41;5018986;28;20037;-66
2024/01/13 09:21:37;;;;;;;4.35;1.45;;;;;;;3.27;100.00;101299.72;5021347;28;20033;-66
2024/01/13 09:24:03;;;;;;;5.30;1.50;;;;;;;3.27;100.00;101302.34;5027303;28;20502;-65
2024/01/13 09:26:29;;;;;;;7.25;1.38;;;;;;;3.27;100.00;101307.56;5019031;28;20072;-67
2024/01/13 09:28:54;;;;;;;4.43;1.23;;;;;;;3.30;100.00;101304.28;5025934;28;20048;-68
2024/01/13 09:31:20;;;;;;;6.67;1.43;;;;;;;3.26;100.00;101304.81;5020090;28;20041;-65
2024/01/13 09:33:45;;;;;;;5.67;1.67;;;;;;;3.31;100.00;101309.59;5015895;28;20459;-66
2024/01/13 09:36:10;;;;;;;5.07;1.17;;;;;;;3.33;100.00;101320.19;5004316;28;20044;-64
2024/01/13 09:38:36;;;;;;;4.67;1.03;;;;;;;3.32;100.00;101319.28;5005573;28;20057;-64
2024/01/13 09:41:01;;;;;;;4.53;1.13;;;;;;;3.32;100.00;101292.25;5013795;28;21015;-66
2024/01/13 09:43:34;;;;;;;4.30;1.37;;;;;;;3.32;100.00;101295.78;5012944;28;20280;-67
2024/01/13 09:46:00;;;;;;;5.18;1.60;;;;;;;3.32;100.00;101295.78;5004872;28;20556;-64
2024/01/13 09:48:26;;;;;;;5.40;1.80;;;;;;;3.35;100.00;101287.28;5005165;28;20870;-64
2024/01/13 09:50:54;;;;;;;4.67;1.80;;;;;;;3.32;100.00;101300.09;5019893;28;20047;-65
2024/01/13 09:53:30;;;;;;;5.38;1.67;;;;;;;3.31;100.00;101299.16;5018354;28;20021;-66
2024/01/13 09:56:19;;;;;;;4.70;1.35;;;;;;;3.28;100.00;101304.16;5018321;28;20049;-65
2024/01/13 09:58:46;;;;;;;4.20;1.23;;;;;;;3.29;100.00;101281.59;5028263;28;20044;-67
2024/01/13 10:01:12;;;;;;;5.43;1.52;;;;;;;3.36;100.00;101266.50;5030890;28;20598;-66
2024/01/13 10:03:38;;;;;;;5.53;1.83;;;;;;;3.47;100.00;101268.25;5030135;28;20041;-64
2024/01/13 10:06:04;;;;;;;4.00;1.00;;;;;;;3.57;100.00;101263.72;5036149;28;20577;-66
2024/01/13 10:08:33;;;;;;;6.13;1.33;;;;;;;3.65;100.00;101268.72;5016210;28;20528;-68
2024/01/13 10:11:00;;;;;;;4.60;1.30;;;;;;;3.72;100.00;101264.88;5006304;28;20038;-64
2024/01/13 10:13:30;;;;;;;5.05;1.42;;;;;;;3.68;100.00;101258.53;5008532;28;20034;-66
2024/01/13 10:15:55;;;;;;;6.90;1.52;;;;;;;3.67;100.00;101253.19;5013749;28;20040;-69
2024/01/13 10:18:23;;;;;;;4.90;1.30;;;;;;;3.69;100.00;101252.53;5009347;28;20042;-65
2024/01/13 10:20:49;;;;;;;4.78;1.40;;;;;;;3.60;100.00;101261.38;5006474;28;20530;-68
2024/01/13 10:23:15;;;;;;;3.85;1.00;;;;;;;3.57;100.00;101256.78;5011792;28;20041;-65
2024/01/13 10:25:41;;;;;;;4.72;1.50;;;;;;;3.54;100.00;101263.50;5008653;28;20053;-66
2024/01/13 10:28:06;;;;;;;4.77;1.30;;;;;;;3.45;100.00;101259.38;5008084;28;20065;-66
2024/01/13 10:30:31;;;;;;;4.27;1.23;;;;;;;3.47;100.00;101254.28;5014562;28;20395;-67
2024/01/13 10:32:59;;;;;;;5.63;1.70;;;;;;;3.47;100.00;101254.28;5025753;28;20037;-66
2024/01/13 10:35:25;;;;;;;4.28;1.15;;;;;;;3.46;100.00;101257.66;5025641;28;20515;-67
2024/01/13 10:37:51;;;;;;;3.85;0.95;;;;;;;3.40;100.00;101252.00;5035550;28;20048;-65
2024/01/13 10:40:17;;;;;;;5.20;1.53;;;;;;;3.33;100.00;101247.09;5014847;28;20033;-66
2024/01/13 10:42:46;;;;;;;4.30;1.20;;;;;;;3.30;100.00;101249.47;5014376;28;20038;-68
2024/01/13 10:45:14;;;;;;;4.68;1.38;;;;;;;3.31;100.00;101240.81;5015771;28;20491;-63
2024/01/13 10:47:45;;;;;;;4.67;1.53;;;;;;;3.32;100.00;101247.88;5006599;28;20036;-65
2024/01/13 10:50:11;;;;;;;4.88;1.58;;;;;;;3.27;100.00;101246.59;5011030;28;20065;-64
2024/01/13 10:53:05;;;;;;;4.05;1.25;;;;;;;3.27;100.00;101250.13;5016513;28;20123;-65
2024/01/13 10:55:32;;;;;;;5.73;1.50;;;;;;;3.23;100.00;101228.88;5025116;28;20429;-67
2024/01/13 10:58:01;;;;;;;4.78;1.38;;;;;;;3.39;100.00;101227.59;5012936;28;20030;-63
2024/01/13 11:00:28;;;;;;;5.47;1.42;;;;;;;3.43;100.00;101220.88;5007819;28;20061;-63
2024/01/13 11:02:54;;;;;;;4.30;1.30;;;;;;;3.41;100.00;101217.25;5028906;28;20127;-62
2024/01/13 11:05:22;;;;;;;5.00;1.60;;;;;;;3.42;100.00;101208.63;5037779;28;20041;-62
2024/01/13 11:07:48;;;;;;;5.80;1.70;;;;;;;3.43;100.00;101189.56;5021310;28;20103;-66
2024/01/13 11:10:22;;;;;;;4.45;1.70;;;;;;;3.46;100.00;101195.00;5025209;28;20827;-66
2024/01/13 11:12:55;;;;;;;4.22;1.27;;;;;;;3.43;100.00;101190.47;5037414;28;20409;-66
2024/01/13 11:17:34;;;;;;;6.43;1.52;;;;;;;3.36;100.00;101161.16;5103594;27;21169;-67
2024/01/13 11:20:01;;;;;;;5.13;1.67;;;;;;;3.37;100.00;101148.22;5103762;28;20028;-64
2024/01/13 11:24:38;;;;;;;4.13;1.30;;;;;;;3.41;100.00;101150.25;5082534;27;20429;-65
2024/01/13 11:27:04;;;;;;;5.27;1.43;;;;;;;3.39;100.00;101135.28;5083945;28;20040;-64
2024/01/13 11:29:30;;;;;;;6.15;1.60;;;;;;;3.39;100.00;101145.75;5080360;28;20072;-65
2024/01/13 11:31:58;;;;;;;4.50;1.17;;;;;;;3.31;100.00;101139.00;5062791;28;20029;-67
2024/01/13 11:34:26;;;;;;;4.90;1.60;;;;;;;3.25;100.00;101128.13;5063575;28;20086;-66
2024/01/13 11:36:56;;;;;;;3.88;1.02;;;;;;;3.22;100.00;101136.63;5071001;28;20160;-65
2024/01/13 11:39:22;;;;;;;5.15;1.58;;;;;;;3.22;100.00;101126.19;5063974;28;20568;-64
2024/01/13 11:41:54;;;;;;;5.00;1.40;;;;;;;3.21;100.00;101124.34;5095481;28;20032;-67
2024/01/13 11:44:21;;;;;;;5.28;1.45;;;;;;;3.19;100.00;101112.00;5063296;28;20036;-64
2024/01/13 11:47:26;;;;;;;4.27;1.50;;;;;;;3.15;100.00;101121.31;5059964;28;20149;-64